Time;durP1;ratioP1;P1;durP2;ratioP2;P2;SDS_P1;SDS_P2;PMS_P1;PMS_P2;Temp;Humidity;BMP_temperature;BMP_pressure;BME280_temperature;BME280_humidity;BME280_pressure;Samples;Min_cycle;Max_cycle;Signal;HPM_P1;HPM_P2
2021/04/26 00:04:10;;;;;;;41.17;15.37;;;;;;;-0.46;63.22;99441.23;4290923;81;21157;-82
2021/04/26 00:10:13;;;;;;;44.33;16.20;;;;;;;-0.55;63.24;99441.08;4292809;82;21178;-81
2021/04/26 00:16:15;;;;;;;39.67;16.03;;;;;;;-0.58;63.83;99440.33;4288393;82;21592;-82
2021/04/26 00:22:17;;;;;;;41.97;17.30;;;;;;;-0.64;63.67;99436.68;4291649;81;21190;-82
2021/04/26 00:28:19;;;;;;;42.70;17.77;;;;;;;-0.85;63.85;99460.36;4290096;81;21573;-82
2021/04/26 00:34:21;;;;;;;48.17;18.80;;;;;;;-0.83;64.02;99457.38;4292543;81;21708;-82
2021/04/26 00:40:23;;;;;;;39.13;16.33;;;;;;;-0.89;63.56;99456.62;4291687;81;21150;-81
2021/04/26 00:46:25;;;;;;;45.97;18.67;;;;;;;-0.90;64.50;99451.55;4292063;82;21129;-82
2021/04/26 00:52:28;;;;;;;46.07;18.57;;;;;;;-1.05;63.34;99452.53;4290460;82;21252;-81
2021/04/26 00:58:30;;;;;;;44.93;19.00;;;;;;;-1.35;64.30;99452.92;4292796;82;21630;-81
2021/04/26 01:04:32;;;;;;;47.43;18.73;;;;;;;-1.40;65.08;99454.84;4290196;81;21566;-81
2021/04/26 01:10:37;;;;;;;41.13;16.93;;;;;;;-1.25;65.59;99462.75;4289094;82;21288;-81
2021/04/26 01:16:50;;;;;;;48.90;17.83;;;;;;;-1.21;65.75;99453.02;4285677;82;21136;-81
2021/04/26 01:23:05;;;;;;;42.33;17.70;;;;;;;-1.24;65.96;99449.56;4293422;82;21196;-81
2021/04/26 01:29:25;;;;;;;46.97;19.40;;;;;;;-1.19;66.71;99436.86;4290395;81;21209;-81
2021/04/26 01:35:29;;;;;;;43.00;18.97;;;;;;;-1.19;66.80;99434.17;4289043;81;21180;-82
2021/04/26 01:41:34;;;;;;;40.03;17.97;;;;;;;-0.95;66.97;99432.26;4288547;82;21165;-81
2021/04/26 01:47:37;;;;;;;43.27;17.30;;;;;;;-0.66;67.26;99430.22;4290904;81;21294;-82
2021/04/26 01:53:41;;;;;;;42.63;16.93;;;;;;;-0.53;67.07;99432.73;4292012;82;21168;-81
2021/04/26 01:59:43;;;;;;;40.33;17.73;;;;;;;-0.40;67.34;99423.92;4291011;81;21178;-81
2021/04/26 02:05:46;;;;;;;46.90;18.87;;;;;;;-0.34;66.49;99420.88;4292187;82;21306;-82
2021/04/26 02:11:55;;;;;;;41.03;17.03;;;;;;;-0.54;66.20;99413.13;4279018;82;21180;-83
2021/04/26 02:18:00;;;;;;;49.30;18.83;;;;;;;-0.56;66.97;99415.30;4192621;82;21173;-82
2021/04/26 02:24:02;;;;;;;53.37;20.70;;;;;;;-0.51;66.84;99405.00;4276520;82;21282;-81
2021/04/26 02:30:06;;;;;;;43.67;19.30;;;;;;;-0.64;66.51;99405.20;4213443;83;21172;-81
2021/04/26 02:36:12;;;;;;;41.23;17.87;;;;;;;-0.59;67.16;99409.16;4255980;82;21808;-82
2021/04/26 02:42:16;;;;;;;50.45;19.77;;;;;;;-0.54;66.93;99406.40;4275086;82;21289;-81
2021/04/26 02:48:19;;;;;;;52.23;19.60;;;;;;;-0.81;66.52;99399.54;4286577;82;21138;-81
2021/04/26 02:54:26;;;;;;;45.70;19.43;;;;;;;-1.02;66.98;99396.09;4232033;83;21638;-81
2021/04/26 03:00:29;;;;;;;42.53;16.73;;;;;;;-1.07;67.26;99390.78;4281531;83;21664;-81
2021/04/26 03:06:52;;;;;;;49.67;18.23;;;;;;;-1.19;67.38;99397.91;4261615;82;21181;-81
2021/04/26 03:12:57;;;;;;;44.67;18.17;;;;;;;-1.32;67.72;99391.11;4261591;82;21608;-81
2021/04/26 03:19:01;;;;;;;44.43;17.67;;;;;;;-1.25;68.03;99405.77;4096450;83;21615;-81
2021/04/26 03:25:04;;;;;;;46.03;18.20;;;;;;;-1.22;67.95;99408.45;4158900;84;21322;-80
2021/04/26 03:31:07;;;;;;;47.20;17.97;;;;;;;-1.36;67.92;99406.20;4099572;85;21210;-81
2021/04/26 03:37:32;;;;;;;39.20;17.23;;;;;;;-1.46;67.91;99409.81;4592916;76;22933;-81
2021/04/26 03:43:34;;;;;;;46.77;17.17;;;;;;;-1.73;68.76;99422.45;4448100;79;21158;-81
2021/04/26 03:49:49;;;;;;;44.57;18.60;;;;;;;-1.60;69.18;99416.39;4449774;79;23000;-81
2021/04/26 03:56:10;;;;;;;40.47;17.67;;;;;;;-1.59;68.54;99422.57;4381345;80;21577;-81
2021/04/26 04:02:12;;;;;;;41.73;19.53;;;;;;;-1.65;68.59;99426.40;4393629;80;21163;-81
2021/04/26 04:08:18;;;;;;;37.20;18.90;;;;;;;-1.61;69.62;99428.22;4384698;80;21606;-81
2021/04/26 04:14:30;;;;;;;37.77;17.70;;;;;;;-1.26;70.56;99431.58;4530684;77;22668;-82
2021/04/26 04:20:33;;;;;;;49.43;19.97;;;;;;;-0.99;70.71;99440.66;4487929;78;21181;-82
2021/04/26 04:26:35;;;;;;;56.90;23.23;;;;;;;-0.69;70.76;99436.75;4487880;78;21157;-82
2021/04/26 04:32:42;;;;;;;54.70;23.52;;;;;;;-0.36;70.77;99449.95;4509954;78;21128;-82
2021/04/26 04:39:04;;;;;;;68.13;28.60;;;;;;;-0.07;70.61;99459.98;4501050;78;21283;-82
2021/04/26 04:45:08;;;;;;;61.50;27.93;;;;;;;0.18;70.36;99453.91;4499321;78;21146;-82
2021/04/26 04:51:12;;;;;;;41.73;21.10;;;;;;;0.34;70.06;99456.05;4499262;78;21728;-82
2021/04/26 04:57:15;;;;;;;46.23;18.97;;;;;;;0.50;69.78;99461.95;4480359;78;21125;-83
2021/04/26 05:03:17;;;;;;;47.70;19.20;;;;;;;0.65;69.87;99471.90;4498581;78;21149;-83
2021/04/26 05:09:50;;;;;;;52.77;23.53;;;;;;;0.90;70.21;99470.06;4532340;77;22953;-83
2021/04/26 05:16:11;;;;;;;49.43;24.47;;;;;;;0.92;69.91;99464.37;4503069;78;21105;-83
2021/04/26 05:28:45;;;;;;;52.38;23.42;;;;;;;1.34;70.12;99466.16;4489914;78;21564;-83
2021/04/26 05:34:52;;;;;;;48.87;23.90;;;;;;;1.78;68.70;99468.13;4498241;78;21165;-83
2021/04/26 05:40:54;;;;;;;55.55;25.50;;;;;;;1.78;68.70;99468.13;4493781;78;21562;-83
2021/04/26 05:46:55;;;;;;;61.85;26.20;;;;;;;2.11;68.96;99460.58;4516763;78;21322;-82
2021/04/26 05:52:58;;;;;;;56.25;25.52;;;;;;;2.49;68.51;99454.43;4500124;78;21130;-83
2021/04/26 05:59:00;;;;;;;59.58;24.30;;;;;;;2.98;68.28;99454.16;4495610;78;21177;-83
2021/04/26 06:05:02;;;;;;;50.48;22.40;;;;;;;3.58;67.60;99441.28;4488927;78;21895;-83
2021/04/26 06:11:04;;;;;;;50.10;22.80;;;;;;;4.26;67.13;99452.84;4476654;78;21165;-83
2021/04/26 06:17:05;;;;;;;41.65;20.60;;;;;;;4.80;66.20;99452.59;4487908;78;21113;-83
2021/04/26 06:23:07;;;;;;;44.95;21.73;;;;;;;5.21;65.13;99455.98;4507316;78;21821;-83
2021/04/26 06:29:09;;;;;;;39.92;19.00;;;;;;;5.53;64.73;99441.15;4509074;78;21121;-83
2021/04/26 06:35:36;;;;;;;;;;;;;;;;;;;;;
2021/04/26 06:42:30;;;;;;;;;;;;;;;;;;;;;
2021/04/26 06:49:08;;;;;;;31.05;14.65;;;;;;;6.57;62.01;99430.92;4048823;80;21136;-83
2021/04/26 06:55:10;;;;;;;23.12;12.55;;;;;;;7.17;60.66;99429.01;4496259;78;21156;-83
2021/04/26 07:01:11;;;;;;;24.30;13.10;;;;;;;6.84;59.66;99431.08;4506652;78;21151;-83
2021/04/26 07:07:13;;;;;;;27.32;13.20;;;;;;;6.82;59.99;99421.09;4491139;78;21101;-83
2021/04/26 07:13:15;;;;;;;28.65;13.53;;;;;;;7.03;59.95;99416.91;4504394;78;21134;-83
2021/04/26 07:19:16;;;;;;;19.82;9.35;;;;;;;7.45;59.05;99423.09;4500677;78;21607;-83
2021/04/26 07:25:18;;;;;;;14.40;8.03;;;;;;;7.73;58.33;99416.31;4506504;78;21191;-86
2021/04/26 07:31:19;;;;;;;20.30;8.88;;;;;;;7.88;56.55;99415.56;4499926;78;21544;-86
2021/04/26 07:37:21;;;;;;;16.75;7.70;;;;;;;8.07;56.09;99419.00;4500725;78;22541;-86
2021/04/26 07:43:22;;;;;;;15.05;6.90;;;;;;;8.39;55.52;99418.77;4502596;78;21166;-87
2021/04/26 07:49:25;;;;;;;12.20;6.03;;;;;;;9.09;54.09;99418.37;4491051;78;21117;-87
2021/04/26 07:55:26;;;;;;;13.75;6.53;;;;;;;9.95;53.39;99417.13;4488372;78;21128;-87
2021/04/26 08:01:28;;;;;;;11.33;5.28;;;;;;;10.35;52.38;99416.97;4494511;78;21129;-86
2021/04/26 08:07:30;;;;;;;14.70;6.10;;;;;;;10.70;51.04;99418.98;4491056;78;21154;-87
2021/04/26 08:13:31;;;;;;;24.35;7.33;;;;;;;11.07;50.54;99398.06;4498940;78;21186;-87
2021/04/26 08:19:33;;;;;;;10.90;5.53;;;;;;;10.55;49.34;99403.47;4491734;78;21146;-87
2021/04/26 08:25:34;;;;;;;13.80;6.87;;;;;;;9.64;49.32;99411.79;4509615;78;21172;-87
2021/04/26 08:31:36;;;;;;;16.37;6.85;;;;;;;9.24;46.94;99405.24;4498180;78;21157;-87
2021/04/26 08:37:37;;;;;;;21.48;6.62;;;;;;;8.73;48.52;99406.37;4501287;78;21164;-87
2021/04/26 08:43:44;;;;;;;11.28;5.60;;;;;;;9.13;47.53;99405.60;4501798;78;21109;-87
2021/04/26 08:49:45;;;;;;;13.48;5.83;;;;;;;8.80;46.93;99410.06;4502376;78;21161;-88
2021/04/26 08:55:47;;;;;;;10.58;5.28;;;;;;;8.92;47.11;99404.52;4493824;78;21165;-88
2021/04/26 09:02:05;;;;;;;14.55;5.28;;;;;;;9.43;45.96;99397.09;4502197;78;21212;-88
2021/04/26 09:08:12;;;;;;;11.22;4.90;;;;;;;9.54;45.89;99403.58;4495297;78;21181;-87
2021/04/26 09:14:19;;;;;;;7.22;3.52;;;;;;;9.31;45.27;99408.15;4480825;78;21142;-87
2021/04/26 09:20:23;;;;;;;;;;;;;;;8.75;45.23;99398.63;4476913;78;21207;-87
2021/04/26 09:26:27;;;;;;;7.55;3.17;;;;;;;9.27;45.73;99406.70;4485891;78;20553;-87
2021/04/26 09:32:29;;;;;;;15.28;4.17;;;;;;;9.99;42.41;99398.86;4479055;78;21191;-87
2021/04/26 09:38:34;;;;;;;10.93;4.62;;;;;;;9.51;43.86;99397.46;4365622;78;28980;-87
2021/04/26 09:44:35;;;;;;;8.23;3.95;;;;;;;10.10;44.25;99383.48;4321452;80;21133;-87
2021/04/26 09:51:00;;;;;;;6.28;3.10;;;;;;;10.82;43.09;99380.45;4335282;81;21640;-87
2021/04/26 09:57:02;;;;;;;6.92;3.22;;;;;;;11.18;42.65;99381.00;4312583;81;21764;-88
2021/04/26 10:03:04;;;;;;;6.00;2.65;;;;;;;12.64;41.84;99375.70;4326937;81;21156;-88
2021/04/26 10:09:09;;;;;;;10.15;3.45;;;;;;;11.81;40.72;99370.90;4318280;81;21123;-88
2021/04/26 10:15:13;;;;;;;7.17;2.70;;;;;;;12.26;40.86;99374.77;4316443;80;21394;-88
2021/04/26 10:21:23;;;;;;;5.35;2.70;;;;;;;14.20;39.90;99358.36;4311950;80;21171;-87
2021/04/26 10:27:40;;;;;;;11.65;2.95;;;;;;;12.99;39.04;99361.46;4316807;80;21192;-88
2021/04/26 10:34:02;;;;;;;5.60;2.87;;;;;;;11.81;38.90;99364.84;4312535;80;21176;-87
2021/04/26 10:40:12;;;;;;;12.60;6.33;;;;;;;11.86;39.72;99351.38;4321806;81;21309;-88
2021/04/26 10:46:19;;;;;;;10.30;2.83;;;;;;;13.55;37.34;99342.58;4326943;80;21169;-87
2021/04/26 10:52:30;;;;;;;;;;;;;;;12.91;37.12;99343.34;4319284;80;21242;-88
2021/04/26 10:58:38;;;;;;;7.17;3.02;;;;;;;11.97;36.60;99336.63;4318443;81;20220;-87
2021/04/26 11:04:40;;;;;;;6.13;2.83;;;;;;;12.26;38.12;99322.61;4310363;80;21217;-88
2021/04/26 11:10:48;;;;;;;11.70;3.10;;;;;;;12.17;36.74;99334.46;4326646;81;21147;-88
2021/04/26 11:17:03;;;;;;;6.08;2.27;;;;;;;11.70;36.62;99324.76;4318504;80;21155;-87
2021/04/26 11:23:04;;;;;;;8.10;2.10;;;;;;;11.58;35.91;99318.09;4322968;81;21335;-88
2021/04/26 11:29:11;;;;;;;8.18;2.75;;;;;;;12.84;33.97;99307.02;4333622;80;21546;-87
2021/04/26 11:35:16;;;;;;;7.58;2.58;;;;;;;14.53;35.92;99304.92;4330045;80;30656;-88
2021/04/26 11:41:17;;;;;;;4.83;2.30;;;;;;;14.00;34.96;99308.35;4388935;80;22415;-88
2021/04/26 11:47:21;;;;;;;6.45;2.80;;;;;;;13.20;33.91;99303.92;4382193;80;21326;-87
2021/04/26 11:53:27;;;;;;;6.25;2.77;;;;;;;12.35;35.02;99292.31;4379078;80;21299;-89
2021/04/26 11:59:29;;;;;;;8.28;2.77;;;;;;;13.37;35.38;99290.84;4286453;82;21163;-87
2021/04/26 12:05:32;;;;;;;5.60;2.37;;;;;;;14.29;34.65;99274.81;4280142;81;21190;-88
2021/04/26 12:11:34;;;;;;;5.12;2.37;;;;;;;14.37;33.02;99272.26;4292816;81;21179;-87
2021/04/26 12:17:40;;;;;;;3.77;2.12;;;;;;;14.18;33.68;99260.22;4292590;81;21154;-87
2021/04/26 12:23:41;;;;;;;5.85;2.20;;;;;;;13.96;33.40;99262.16;4288752;81;21166;-86
2021/04/26 12:29:45;;;;;;;5.17;2.00;;;;;;;13.55;31.45;99250.44;4294050;81;21170;-86
2021/04/26 12:35:48;;;;;;;7.00;2.65;;;;;;;13.94;32.54;99236.98;4292564;81;21620;-86
2021/04/26 12:41:49;;;;;;;6.80;2.10;;;;;;;14.28;32.27;99231.94;4291198;81;21210;-90
2021/04/26 12:48:01;;;;;;;5.22;2.30;;;;;;;14.15;31.95;99223.84;4293266;81;21174;-87
2021/04/26 12:54:11;;;;;;;7.37;2.35;;;;;;;13.70;32.07;99221.20;4277165;81;21162;-86
2021/04/26 13:00:13;;;;;;;7.53;2.92;;;;;;;13.29;30.48;99206.18;4293129;81;21646;-87
2021/04/26 13:06:19;;;;;;;4.40;2.30;;;;;;;13.21;31.14;99193.58;4292634;81;21182;-87
2021/04/26 13:12:27;;;;;;;5.95;2.10;;;;;;;13.64;31.75;99180.74;4280514;81;21615;-87
2021/04/26 13:18:28;;;;;;;3.85;2.40;;;;;;;13.72;31.60;99171.30;4287248;81;21160;-87
2021/04/26 13:24:34;;;;;;;4.60;2.10;;;;;;;13.82;31.15;99165.83;4290101;81;21257;-87
2021/04/26 13:30:35;;;;;;;7.35;3.58;;;;;;;13.95;30.59;99146.35;4282061;81;21691;-89
2021/04/26 13:36:37;;;;;;;4.33;2.17;;;;;;;13.62;30.86;99143.20;4284914;81;21371;-89
2021/04/26 13:42:38;;;;;;;5.90;2.40;;;;;;;13.47;29.09;99130.59;4301714;82;21584;-86
2021/04/26 13:48:41;;;;;;;5.30;2.40;;;;;;;13.21;30.47;99134.48;4252906;82;21150;-86
2021/04/26 13:54:43;;;;;;;5.58;2.08;;;;;;;13.64;30.77;99122.98;4295131;82;22053;-86
2021/04/26 14:00:46;;;;;;;6.40;2.25;;;;;;;13.71;30.04;99113.34;4293803;81;21150;-87
2021/04/26 14:06:47;;;;;;;6.97;2.75;;;;;;;13.80;30.27;99108.22;4296220;82;21218;-87
2021/04/26 14:12:49;;;;;;;7.67;4.33;;;;;;;13.64;30.14;99103.11;4294329;81;21195;-87
2021/04/26 14:18:52;;;;;;;7.10;3.77;;;;;;;13.45;29.29;99103.48;4253165;82;21331;-87
2021/04/26 14:24:55;;;;;;;7.65;2.98;;;;;;;13.26;29.94;99091.50;4237336;82;21178;-87
2021/04/26 14:30:56;;;;;;;4.75;2.60;;;;;;;12.94;30.08;99086.46;4303242;81;21243;-88
2021/04/26 14:36:58;;;;;;;6.85;3.42;;;;;;;12.84;29.45;99078.19;4298555;82;21196;-87
2021/04/26 14:43:00;;;;;;;4.72;2.27;;;;;;;12.56;29.52;99080.23;4237562;83;21136;-87
2021/04/26 14:49:02;;;;;;;4.42;2.25;;;;;;;12.30;28.58;99079.92;4242832;83;21627;-87
2021/04/26 14:55:04;;;;;;;6.22;2.50;;;;;;;12.03;29.48;99068.97;4238243;83;21141;-87
2021/04/26 15:01:06;;;;;;;4.17;2.30;;;;;;;11.92;29.89;99062.63;4290815;81;21210;-87
2021/04/26 15:07:09;;;;;;;10.53;2.17;;;;;;;12.08;29.77;99061.76;4108179;83;29666;-87
2021/04/26 15:13:12;;;;;;;5.90;2.72;;;;;;;12.10;30.34;99055.31;4082271;86;21252;-87
2021/04/26 15:19:14;;;;;;;5.47;2.47;;;;;;;12.01;30.04;99054.08;4083970;86;21224;-86
2021/04/26 15:25:16;;;;;;;7.95;3.10;;;;;;;11.88;29.92;99041.83;4119925;85;21127;-86
2021/04/26 15:31:17;;;;;;;6.15;2.47;;;;;;;11.41;29.83;99038.52;4120870;85;21258;-87
2021/04/26 15:37:19;;;;;;;10.78;2.50;;;;;;;11.19;29.94;99037.33;4121580;85;33208;-86
2021/04/26 15:43:21;;;;;;;5.78;2.27;;;;;;;10.93;29.29;99035.53;4110716;85;21300;-86
2021/04/26 15:49:22;;;;;;;5.17;2.40;;;;;;;10.66;29.77;99028.00;4123513;85;21334;-86
2021/04/26 15:55:26;;;;;;;6.47;2.12;;;;;;;10.53;29.64;99016.30;4120339;85;21185;-86
2021/04/26 16:01:27;;;;;;;5.70;2.33;;;;;;;10.27;29.81;99010.91;4120447;85;21362;-86
2021/04/26 16:07:29;;;;;;;7.30;3.10;;;;;;;9.99;29.61;99011.88;4114944;85;21378;-86
2021/04/26 16:13:31;;;;;;;14.25;4.42;;;;;;;9.84;29.60;99004.63;4107067;85;21212;-86
2021/04/26 16:19:32;;;;;;;9.43;3.87;;;;;;;9.66;30.07;99003.02;4105443;85;21216;-86
2021/04/26 16:25:34;;;;;;;5.22;3.15;;;;;;;9.53;30.03;99001.08;4106955;85;21241;-86
2021/04/26 16:31:35;;;;;;;8.60;3.12;;;;;;;9.35;30.02;98993.17;4106617;85;21699;-86
2021/04/26 16:37:37;;;;;;;11.35;4.53;;;;;;;9.11;30.01;98984.58;4106073;85;21232;-86
2021/04/26 16:43:38;;;;;;;9.73;4.10;;;;;;;8.94;30.28;98986.44;4106515;85;21685;-86
2021/04/26 16:49:40;;;;;;;8.00;3.12;;;;;;;8.71;30.45;98987.78;4107641;85;21428;-86
2021/04/26 16:55:42;;;;;;;11.10;3.95;;;;;;;8.58;30.73;98984.23;4103304;85;21216;-86
2021/04/26 17:01:44;;;;;;;18.87;5.83;;;;;;;8.44;31.06;98988.82;4102961;85;21332;-86
2021/04/26 17:07:45;;;;;;;10.10;3.95;;;;;;;8.29;30.92;98984.25;4103319;85;21261;-86
2021/04/26 17:13:48;;;;;;;9.65;4.17;;;;;;;8.10;31.32;98992.39;4045488;86;21333;-86
2021/04/26 17:19:50;;;;;;;22.40;6.83;;;;;;;7.91;31.27;98986.36;4111631;85;21212;-86
2021/04/26 17:25:53;;;;;;;20.80;6.42;;;;;;;7.74;31.30;98980.52;4110821;85;21395;-87
2021/04/26 17:31:54;;;;;;;30.60;9.38;;;;;;;7.57;31.33;98982.28;4048897;85;21228;-87
2021/04/26 17:37:56;;;;;;;18.17;5.50;;;;;;;7.36;31.56;98981.81;4104588;85;21363;-87
2021/04/26 17:43:58;;;;;;;15.20;6.78;;;;;;;7.15;31.96;98991.62;4025682;86;21194;-87
2021/04/26 17:50:00;;;;;;;28.35;12.40;;;;;;;6.91;32.47;98993.70;4113936;84;21210;-88
2021/04/26 17:56:03;;;;;;;21.20;6.12;;;;;;;6.65;32.94;99001.59;4107322;85;21246;-87
2021/04/26 18:02:04;;;;;;;14.87;4.83;;;;;;;6.41;33.38;99006.58;3994635;85;10000219;-88
2021/04/26 18:08:07;;;;;;;10.68;4.53;;;;;;;6.17;33.74;99008.83;4110917;85;21687;-86
2021/04/26 18:14:08;;;;;;;16.12;5.85;;;;;;;5.95;34.01;99015.37;4110068;85;21245;-85
2021/04/26 18:20:11;;;;;;;15.85;6.85;;;;;;;5.82;34.36;99030.91;4114367;85;21328;-85
2021/04/26 18:26:12;;;;;;;10.20;5.37;;;;;;;5.74;34.62;99033.14;4112778;85;22126;-86
2021/04/26 18:32:14;;;;;;;8.58;5.40;;;;;;;5.59;34.84;99037.90;4114117;85;21229;-85
2021/04/26 18:38:15;;;;;;;17.80;11.12;;;;;;;5.39;35.23;99040.73;4091142;85;21382;-86
2021/04/26 18:44:17;;;;;;;21.80;12.23;;;;;;;5.23;35.90;99045.27;4113988;85;21283;-86
2021/04/26 18:50:19;;;;;;;119.95;52.53;;;;;;;4.93;36.38;99047.38;4112086;84;21186;-86
2021/04/26 18:56:21;;;;;;;135.90;58.75;;;;;;;4.73;36.61;99047.66;4114545;85;21225;-86
2021/04/26 19:02:24;;;;;;;110.92;54.60;;;;;;;4.52;37.12;99052.36;4109559;85;21194;-87
2021/04/26 19:08:25;;;;;;;41.37;20.60;;;;;;;4.16;37.30;99050.04;4110691;85;21250;-87
2021/04/26 19:14:27;;;;;;;47.00;22.80;;;;;;;3.93;38.78;99067.17;4109690;85;21686;-86
2021/04/26 19:20:28;;;;;;;53.87;25.32;;;;;;;3.89;39.16;99061.39;4049738;86;21706;-86
2021/04/26 19:26:31;;;;;;;28.23;13.08;;;;;;;3.87;39.22;99070.42;4107580;85;21182;-86
2021/04/26 19:32:33;;;;;;;22.85;10.60;;;;;;;3.77;39.71;99068.89;4107749;85;21402;-86
2021/04/26 19:38:34;;;;;;;25.77;11.12;;;;;;;3.57;39.97;99075.04;4111593;84;21229;-86
2021/04/26 19:44:36;;;;;;;20.68;10.05;;;;;;;3.35;40.55;99078.05;4109524;85;21775;-86
2021/04/26 19:50:38;;;;;;;20.68;9.78;;;;;;;3.18;40.39;99071.33;4049883;86;21687;-86
2021/04/26 19:56:42;;;;;;;20.85;10.60;;;;;;;3.19;40.86;99067.52;4114201;85;21168;-86
2021/04/26 20:02:43;;;;;;;17.42;9.35;;;;;;;3.11;41.31;99075.91;4108977;85;21640;-85
2021/04/26 20:08:52;;;;;;;19.17;9.18;;;;;;;2.97;41.84;99075.33;4111543;85;21200;-88
2021/04/26 20:14:59;;;;;;;25.35;11.70;;;;;;;2.80;43.16;99078.05;4048309;88;21200;-88
2021/04/26 20:21:00;;;;;;;25.70;11.25;;;;;;;2.59;42.33;99070.39;4055816;88;21169;-89
2021/04/26 20:27:02;;;;;;;28.92;12.20;;;;;;;2.43;42.93;99060.39;4055044;88;21232;-88
2021/04/26 20:33:04;;;;;;;28.73;13.43;;;;;;;2.21;43.21;99062.71;3993826;89;21219;-90
2021/04/26 20:39:07;;;;;;;29.80;14.05;;;;;;;2.01;43.63;99057.95;3994590;89;21215;-88
2021/04/26 20:45:11;;;;;;;39.58;15.95;;;;;;;1.89;43.88;99055.64;3994736;89;21627;-89
2021/04/26 20:51:12;;;;;;;39.45;16.20;;;;;;;1.74;44.43;99047.44;3994393;89;21203;-89
2021/04/26 20:57:14;;;;;;;38.70;17.75;;;;;;;1.56;45.51;99061.48;4054895;88;21168;-89
2021/04/26 21:03:16;;;;;;;34.55;14.90;;;;;;;1.56;45.51;99061.48;3994257;89;21183;-89
2021/04/26 21:09:18;;;;;;;40.20;17.50;;;;;;;1.59;47.73;99066.80;3993040;88;21259;-88
2021/04/26 21:15:20;;;;;;;40.60;18.75;;;;;;;1.57;47.75;99064.41;3988971;89;21183;-88
2021/04/26 21:21:22;;;;;;;39.80;18.12;;;;;;;1.62;47.60;99058.06;3989237;89;21175;-88
2021/04/26 21:27:24;;;;;;;56.58;23.32;;;;;;;1.73;48.26;99068.80;4053384;88;21222;-90
2021/04/26 21:33:26;;;;;;;42.48;20.72;;;;;;;1.72;48.42;99071.81;4052706;88;21193;-88
2021/04/26 21:39:28;;;;;;;46.30;19.05;;;;;;;1.78;50.10;99068.66;4052831;88;21208;-90
2021/04/26 21:45:31;;;;;;;46.35;21.20;;;;;;;1.96;48.42;99078.35;4052521;88;21642;-89
2021/04/26 21:51:33;;;;;;;44.23;21.62;;;;;;;1.97;51.55;99071.86;4052848;88;21204;-88
2021/04/26 21:57:35;;;;;;;90.00;30.20;;;;;;;2.13;50.63;99084.34;4052739;88;21625;-90
2021/04/26 22:03:37;;;;;;;63.25;25.72;;;;;;;2.25;50.91;99083.94;4052280;88;21390;-88
2021/04/26 22:09:38;;;;;;;68.90;26.15;;;;;;;2.40;51.57;99089.40;4037931;84;21182;-89
2021/04/26 22:15:40;;;;;;;60.60;23.32;;;;;;;2.47;50.49;99093.23;4109785;86;21146;-89
2021/04/26 22:21:42;;;;;;;79.05;32.50;;;;;;;2.46;52.55;99086.80;4109457;87;21191;-88
2021/04/26 22:27:44;;;;;;;67.92;28.27;;;;;;;2.54;51.95;99087.31;4109797;86;21671;-88
2021/04/26 22:33:46;;;;;;;71.35;27.77;;;;;;;2.57;53.49;99082.66;4091240;87;21202;-88
2021/04/26 22:39:47;;;;;;;75.32;30.65;;;;;;;2.62;53.09;99078.41;4120067;86;21206;-90
2021/04/26 22:45:49;;;;;;;66.12;26.07;;;;;;;2.73;52.28;99076.41;4077455;86;21230;-88
2021/04/26 22:51:51;;;;;;;59.95;24.45;;;;;;;2.73;52.66;99064.24;4119710;86;21449;-89
2021/04/26 22:57:54;;;;;;;61.35;24.60;;;;;;;2.84;52.66;99071.45;4098965;86;21607;-90
2021/04/26 23:03:56;;;;;;;55.45;23.07;;;;;;;2.95;52.66;99072.69;4120727;86;21154;-89
2021/04/26 23:09:57;;;;;;;56.15;22.62;;;;;;;2.98;52.73;99072.84;4119022;84;21509;-88
2021/04/26 23:16:00;;;;;;;50.67;18.23;;;;;;;3.08;52.59;99073.05;4111769;87;21197;-89
2021/04/26 23:22:02;;;;;;;50.38;19.73;;;;;;;3.14;52.62;99080.67;4090904;87;21194;-89
2021/04/26 23:28:04;;;;;;;52.93;19.50;;;;;;;3.22;52.51;99074.98;4112358;87;21234;-89
2021/04/26 23:34:06;;;;;;;42.35;18.25;;;;;;;3.24;53.24;99072.76;4112630;87;21183;-88
2021/04/26 23:40:10;;;;;;;58.10;23.00;;;;;;;3.27;53.39;99054.52;4112229;87;21178;-89
2021/04/26 23:46:11;;;;;;;53.68;21.40;;;;;;;3.21;52.83;99046.36;4112891;87;21631;-88
2021/04/26 23:52:13;;;;;;;55.08;22.15;;;;;;;3.15;53.33;99039.52;4076585;87;21616;-89
2021/04/26 23:58:15;;;;;;;41.95;18.77;;;;;;;3.10;53.54;99035.66;4096248;87;21177;-89
